<?xml version="1.0" encoding="UTF-8" standalone="no" ?>
<gpx xmlns="http://www.topografix.com/GPX/1/1" xmlns:xsi="http://www.w3.org/2001/XMLSchema-instance" xsi:schemaLocation="http://www.topografix.com/GPX/1/1 http://www.topografix.com/GPX/1/1/gpx.xsd" version="1.1" creator="VisuGPX - https://www.visugpx.com">
  <metadata>
    <name>GR21 : château de Dieppe au pont tournant de Dieppe</name>
    <desc><![CDATA[http://mareemonti.canalblog.com/archives/2022/06/19/39534293.html]]></desc>
  </metadata>
  <trk>
    <name><![CDATA[château de Dieppe au pont tournant de Dieppe]]></name>
    <extensions>
      <line xmlns="http://www.topografix.com/GPX/gpx_style/0/2">
        <color>0000FF</color>
        <width>4</width>
      </line>
    </extensions>
    <trkseg>
      <trkpt lat="49.92434" lon="1.07055">
        <ele>37.1</ele>
        <time>2022-06-17T17:49:48+02:00</time>
      </trkpt>
      <trkpt lat="49.92416" lon="1.07078">
        <ele>38.1</ele>
        <time>2022-06-17T17:50:11+02:00</time>
      </trkpt>
      <trkpt lat="49.92439" lon="1.0707">
        <ele>34</ele>
        <time>2022-06-17T17:50:58+02:00</time>
      </trkpt>
      <trkpt lat="49.92429" lon="1.07102">
        <ele>30.3</ele>
        <time>2022-06-17T17:52:50+02:00</time>
      </trkpt>
      <trkpt lat="49.92415" lon="1.0713">
        <ele>24.7</ele>
        <time>2022-06-17T17:53:27+02:00</time>
      </trkpt>
      <trkpt lat="49.92398" lon="1.07155">
        <ele>18.9</ele>
        <time>2022-06-17T17:54:00+02:00</time>
      </trkpt>
      <trkpt lat="49.92382" lon="1.07181">
        <ele>14.8</ele>
        <time>2022-06-17T17:54:32+02:00</time>
      </trkpt>
      <trkpt lat="49.92364" lon="1.07203">
        <ele>11.1</ele>
        <time>2022-06-17T17:54:57+02:00</time>
      </trkpt>
      <trkpt lat="49.92397" lon="1.07207">
        <ele>10.7</ele>
        <time>2022-06-17T17:56:23+02:00</time>
      </trkpt>
      <trkpt lat="49.92417" lon="1.07226">
        <ele>9</ele>
        <time>2022-06-17T17:56:49+02:00</time>
      </trkpt>
      <trkpt lat="49.92394" lon="1.07222">
        <ele>9</ele>
        <time>2022-06-17T17:57:43+02:00</time>
      </trkpt>
      <trkpt lat="49.92374" lon="1.0724">
        <ele>9</ele>
        <time>2022-06-17T17:58:06+02:00</time>
      </trkpt>
      <trkpt lat="49.92381" lon="1.07274">
        <ele>8.4</ele>
        <time>2022-06-17T17:58:37+02:00</time>
      </trkpt>
      <trkpt lat="49.92396" lon="1.073">
        <ele>8</ele>
        <time>2022-06-17T17:58:58+02:00</time>
      </trkpt>
      <trkpt lat="49.92407" lon="1.07331">
        <ele>7.4</ele>
        <time>2022-06-17T17:59:23+02:00</time>
      </trkpt>
      <trkpt lat="49.92419" lon="1.07361">
        <ele>7</ele>
        <time>2022-06-17T17:59:47+02:00</time>
      </trkpt>
      <trkpt lat="49.92429" lon="1.07395">
        <ele>6.9</ele>
        <time>2022-06-17T18:00:16+02:00</time>
      </trkpt>
      <trkpt lat="49.9246" lon="1.07446">
        <ele>6</ele>
        <time>2022-06-17T18:01:03+02:00</time>
      </trkpt>
      <trkpt lat="49.92475" lon="1.07472">
        <ele>6</ele>
        <time>2022-06-17T18:01:25+02:00</time>
      </trkpt>
      <trkpt lat="49.92493" lon="1.07494">
        <ele>6</ele>
        <time>2022-06-17T18:02:23+02:00</time>
      </trkpt>
      <trkpt lat="49.92507" lon="1.07523">
        <ele>6.3</ele>
        <time>2022-06-17T18:02:48+02:00</time>
      </trkpt>
      <trkpt lat="49.92525" lon="1.07545">
        <ele>6.9</ele>
        <time>2022-06-17T18:03:17+02:00</time>
      </trkpt>
      <trkpt lat="49.92545" lon="1.07563">
        <ele>7</ele>
        <time>2022-06-17T18:03:42+02:00</time>
      </trkpt>
      <trkpt lat="49.92564" lon="1.07584">
        <ele>7.3</ele>
        <time>2022-06-17T18:04:13+02:00</time>
      </trkpt>
      <trkpt lat="49.92577" lon="1.07614">
        <ele>7</ele>
        <time>2022-06-17T18:04:34+02:00</time>
      </trkpt>
      <trkpt lat="49.92588" lon="1.07645">
        <ele>7.1</ele>
        <time>2022-06-17T18:04:58+02:00</time>
      </trkpt>
      <trkpt lat="49.92606" lon="1.07666">
        <ele>7</ele>
        <time>2022-06-17T18:05:21+02:00</time>
      </trkpt>
      <trkpt lat="49.92624" lon="1.07689">
        <ele>7.5</ele>
        <time>2022-06-17T18:05:54+02:00</time>
      </trkpt>
      <trkpt lat="49.92637" lon="1.07719">
        <ele>8</ele>
        <time>2022-06-17T18:06:20+02:00</time>
      </trkpt>
      <trkpt lat="49.92654" lon="1.07742">
        <ele>8</ele>
        <time>2022-06-17T18:06:47+02:00</time>
      </trkpt>
      <trkpt lat="49.9267" lon="1.07769">
        <ele>8</ele>
        <time>2022-06-17T18:07:11+02:00</time>
      </trkpt>
      <trkpt lat="49.92681" lon="1.078">
        <ele>7.6</ele>
        <time>2022-06-17T18:07:56+02:00</time>
      </trkpt>
      <trkpt lat="49.92699" lon="1.07824">
        <ele>7.7</ele>
        <time>2022-06-17T18:08:41+02:00</time>
      </trkpt>
      <trkpt lat="49.92718" lon="1.07842">
        <ele>7.7</ele>
        <time>2022-06-17T18:08:54+02:00</time>
      </trkpt>
      <trkpt lat="49.92721" lon="1.07877">
        <ele>7</ele>
        <time>2022-06-17T18:09:12+02:00</time>
      </trkpt>
      <trkpt lat="49.92737" lon="1.07901">
        <ele>7.3</ele>
        <time>2022-06-17T18:09:39+02:00</time>
      </trkpt>
      <trkpt lat="49.92743" lon="1.07937">
        <ele>7</ele>
        <time>2022-06-17T18:10:36+02:00</time>
      </trkpt>
      <trkpt lat="49.92754" lon="1.07967">
        <ele>6.2</ele>
        <time>2022-06-17T18:10:59+02:00</time>
      </trkpt>
      <trkpt lat="49.9277" lon="1.07995">
        <ele>6</ele>
        <time>2022-06-17T18:11:24+02:00</time>
      </trkpt>
      <trkpt lat="49.92783" lon="1.08023">
        <ele>6.2</ele>
        <time>2022-06-17T18:11:49+02:00</time>
      </trkpt>
      <trkpt lat="49.92797" lon="1.08052">
        <ele>6.1</ele>
        <time>2022-06-17T18:12:12+02:00</time>
      </trkpt>
      <trkpt lat="49.92812" lon="1.0808">
        <ele>6.3</ele>
        <time>2022-06-17T18:12:35+02:00</time>
      </trkpt>
      <trkpt lat="49.92827" lon="1.08107">
        <ele>6.1</ele>
        <time>2022-06-17T18:12:58+02:00</time>
      </trkpt>
      <trkpt lat="49.92856" lon="1.08163">
        <ele>6.1</ele>
        <time>2022-06-17T18:13:47+02:00</time>
      </trkpt>
      <trkpt lat="49.92868" lon="1.08193">
        <ele>6.2</ele>
        <time>2022-06-17T18:14:10+02:00</time>
      </trkpt>
      <trkpt lat="49.92881" lon="1.08222">
        <ele>6</ele>
        <time>2022-06-17T18:14:34+02:00</time>
      </trkpt>
      <trkpt lat="49.92895" lon="1.08251">
        <ele>6.2</ele>
        <time>2022-06-17T18:15:00+02:00</time>
      </trkpt>
      <trkpt lat="49.92906" lon="1.08281">
        <ele>6.6</ele>
        <time>2022-06-17T18:15:23+02:00</time>
      </trkpt>
      <trkpt lat="49.92912" lon="1.08316">
        <ele>6.6</ele>
        <time>2022-06-17T18:15:48+02:00</time>
      </trkpt>
      <trkpt lat="49.92919" lon="1.08349">
        <ele>6.5</ele>
        <time>2022-06-17T18:16:12+02:00</time>
      </trkpt>
      <trkpt lat="49.92925" lon="1.08384">
        <ele>6.5</ele>
        <time>2022-06-17T18:16:34+02:00</time>
      </trkpt>
      <trkpt lat="49.92943" lon="1.08406">
        <ele>7.3</ele>
        <time>2022-06-17T18:17:01+02:00</time>
      </trkpt>
      <trkpt lat="49.92962" lon="1.08426">
        <ele>7.4</ele>
        <time>2022-06-17T18:17:24+02:00</time>
      </trkpt>
      <trkpt lat="49.92982" lon="1.08447">
        <ele>7.4</ele>
        <time>2022-06-17T18:17:44+02:00</time>
      </trkpt>
      <trkpt lat="49.93001" lon="1.08466">
        <ele>8</ele>
        <time>2022-06-17T18:18:05+02:00</time>
      </trkpt>
      <trkpt lat="49.93022" lon="1.08479">
        <ele>7.8</ele>
        <time>2022-06-17T18:18:30+02:00</time>
      </trkpt>
      <trkpt lat="49.93045" lon="1.08491">
        <ele>7.1</ele>
        <time>2022-06-17T18:18:50+02:00</time>
      </trkpt>
      <trkpt lat="49.93061" lon="1.08515">
        <ele>7.2</ele>
        <time>2022-06-17T18:20:21+02:00</time>
      </trkpt>
      <trkpt lat="49.93084" lon="1.08518">
        <ele>8</ele>
        <time>2022-06-17T18:20:42+02:00</time>
      </trkpt>
      <trkpt lat="49.93106" lon="1.08517">
        <ele>8</ele>
        <time>2022-06-17T18:21:04+02:00</time>
      </trkpt>
      <trkpt lat="49.93129" lon="1.08511">
        <ele>8</ele>
        <time>2022-06-17T18:21:26+02:00</time>
      </trkpt>
      <trkpt lat="49.93152" lon="1.08511">
        <ele>8</ele>
        <time>2022-06-17T18:21:45+02:00</time>
      </trkpt>
      <trkpt lat="49.9317" lon="1.08489">
        <ele>8</ele>
        <time>2022-06-17T18:22:46+02:00</time>
      </trkpt>
      <trkpt lat="49.93181" lon="1.08455">
        <ele>8.5</ele>
        <time>2022-06-17T18:23:09+02:00</time>
      </trkpt>
      <trkpt lat="49.93179" lon="1.08419">
        <ele>8.4</ele>
        <time>2022-06-17T18:23:31+02:00</time>
      </trkpt>
      <trkpt lat="49.93166" lon="1.0839">
        <ele>8</ele>
        <time>2022-06-17T18:23:52+02:00</time>
      </trkpt>
      <trkpt lat="49.93172" lon="1.08356">
        <ele>8.3</ele>
        <time>2022-06-17T18:24:18+02:00</time>
      </trkpt>
      <trkpt lat="49.93187" lon="1.08328">
        <ele>8.4</ele>
        <time>2022-06-17T18:24:47+02:00</time>
      </trkpt>
      <trkpt lat="49.93204" lon="1.08305">
        <ele>9</ele>
        <time>2022-06-17T18:25:10+02:00</time>
      </trkpt>
      <trkpt lat="49.93215" lon="1.08275">
        <ele>8.9</ele>
        <time>2022-06-17T18:25:34+02:00</time>
      </trkpt>
      <trkpt lat="49.93216" lon="1.08239">
        <ele>8</ele>
        <time>2022-06-17T18:25:58+02:00</time>
      </trkpt>
      <trkpt lat="49.93205" lon="1.08208">
        <ele>8</ele>
        <time>2022-06-17T18:26:20+02:00</time>
      </trkpt>
      <trkpt lat="49.93189" lon="1.0818">
        <ele>8</ele>
        <time>2022-06-17T18:26:41+02:00</time>
      </trkpt>
      <trkpt lat="49.93175" lon="1.08153">
        <ele>8</ele>
        <time>2022-06-17T18:27:04+02:00</time>
      </trkpt>
      <trkpt lat="49.93156" lon="1.0813">
        <ele>8</ele>
        <time>2022-06-17T18:27:24+02:00</time>
      </trkpt>
      <trkpt lat="49.93141" lon="1.08103">
        <ele>8</ele>
        <time>2022-06-17T18:27:45+02:00</time>
      </trkpt>
      <trkpt lat="49.93109" lon="1.08055">
        <ele>8.1</ele>
        <time>2022-06-17T18:30:02+02:00</time>
      </trkpt>
      <trkpt lat="49.93086" lon="1.08042">
        <ele>8.5</ele>
        <time>2022-06-17T18:30:38+02:00</time>
      </trkpt>
      <trkpt lat="49.93065" lon="1.0803">
        <ele>8.7</ele>
        <time>2022-06-17T18:33:49+02:00</time>
      </trkpt>
      <trkpt lat="49.93042" lon="1.08028">
        <ele>9</ele>
        <time>2022-06-17T18:34:21+02:00</time>
      </trkpt>
      <trkpt lat="49.93023" lon="1.08049">
        <ele>9</ele>
        <time>2022-06-17T18:34:50+02:00</time>
      </trkpt>
      <trkpt lat="49.93008" lon="1.08075">
        <ele>9</ele>
        <time>2022-06-17T18:35:14+02:00</time>
      </trkpt>
      <trkpt lat="49.92995" lon="1.08104">
        <ele>9</ele>
        <time>2022-06-17T18:35:42+02:00</time>
      </trkpt>
      <trkpt lat="49.92955" lon="1.08136">
        <ele>9.1</ele>
        <time>2022-06-17T18:36:30+02:00</time>
      </trkpt>
      <trkpt lat="49.92934" lon="1.08152">
        <ele>8.3</ele>
        <time>2022-06-17T18:36:54+02:00</time>
      </trkpt>
      <trkpt lat="49.92918" lon="1.08128">
        <ele>8.4</ele>
        <time>2022-06-17T18:37:37+02:00</time>
      </trkpt>
      <trkpt lat="49.92906" lon="1.08096">
        <ele>9</ele>
        <time>2022-06-17T18:37:58+02:00</time>
      </trkpt>
      <trkpt lat="49.9289" lon="1.08071">
        <ele>8.5</ele>
        <time>2022-06-17T18:38:25+02:00</time>
      </trkpt>
      <trkpt lat="49.92871" lon="1.0805">
        <ele>9</ele>
        <time>2022-06-17T18:38:47+02:00</time>
      </trkpt>
      <trkpt lat="49.92861" lon="1.08018">
        <ele>9</ele>
        <time>2022-06-17T18:39:09+02:00</time>
      </trkpt>
      <trkpt lat="49.9285" lon="1.07986">
        <ele>9</ele>
        <time>2022-06-17T18:39:30+02:00</time>
      </trkpt>
      <trkpt lat="49.92827" lon="1.0799">
        <ele>8.6</ele>
        <time>2022-06-17T18:39:49+02:00</time>
      </trkpt>
      <trkpt lat="49.92807" lon="1.08007">
        <ele>7.1</ele>
        <time>2022-06-17T18:40:11+02:00</time>
      </trkpt>
      <trkpt lat="49.92792" lon="1.08035">
        <ele>6.4</ele>
        <time>2022-06-17T18:40:32+02:00</time>
      </trkpt>
      <trkpt lat="49.92779" lon="1.08006">
        <ele>6</ele>
        <time>2022-06-17T18:40:56+02:00</time>
      </trkpt>
      <trkpt lat="49.92765" lon="1.07978">
        <ele>6</ele>
        <time>2022-06-17T18:41:14+02:00</time>
      </trkpt>
      <trkpt lat="49.92741" lon="1.07979">
        <ele>6.2</ele>
        <time>2022-06-17T18:41:35+02:00</time>
      </trkpt>
      <trkpt lat="49.92719" lon="1.07984">
        <ele>6.5</ele>
        <time>2022-06-17T18:41:52+02:00</time>
      </trkpt>
      <trkpt lat="49.92696" lon="1.07982">
        <ele>5.7</ele>
        <time>2022-06-17T18:42:14+02:00</time>
      </trkpt>
      <trkpt lat="49.92673" lon="1.07986">
        <ele>5.9</ele>
        <time>2022-06-17T18:42:35+02:00</time>
      </trkpt>
      <trkpt lat="49.92658" lon="1.08013">
        <ele>4.4</ele>
        <time>2022-06-17T18:43:25+02:00</time>
      </trkpt>
      <trkpt lat="49.92652" lon="1.08048">
        <ele>4</ele>
        <time>2022-06-17T18:44:08+02:00</time>
      </trkpt>
      <trkpt lat="49.92643" lon="1.08081">
        <ele>6.1</ele>
        <time>2022-06-17T18:44:26+02:00</time>
      </trkpt>
      <trkpt lat="49.92646" lon="1.08117">
        <ele>4.2</ele>
        <time>2022-06-17T18:44:54+02:00</time>
      </trkpt>
      <trkpt lat="49.92658" lon="1.08184">
        <ele>6</ele>
        <time>2022-06-17T18:46:04+02:00</time>
      </trkpt>
      <trkpt lat="49.9267" lon="1.08214">
        <ele>6.7</ele>
        <time>2022-06-17T18:46:29+02:00</time>
      </trkpt>
      <trkpt lat="49.92683" lon="1.08243">
        <ele>6.4</ele>
        <time>2022-06-17T18:46:47+02:00</time>
      </trkpt>
      <trkpt lat="49.92694" lon="1.08275">
        <ele>6.1</ele>
        <time>2022-06-17T18:47:06+02:00</time>
      </trkpt>
      <trkpt lat="49.92709" lon="1.08308">
        <ele>6.5</ele>
        <time>2022-06-17T18:47:27+02:00</time>
      </trkpt>
      <trkpt lat="49.92723" lon="1.08336">
        <ele>5.9</ele>
        <time>2022-06-17T18:47:47+02:00</time>
      </trkpt>
      <trkpt lat="49.92725" lon="1.08371">
        <ele>6</ele>
        <time>2022-06-17T18:48:15+02:00</time>
      </trkpt>
      <trkpt lat="49.92726" lon="1.08406">
        <ele>6.3</ele>
        <time>2022-06-17T18:50:07+02:00</time>
      </trkpt>
      <trkpt lat="49.92726" lon="1.08442">
        <ele>6.6</ele>
        <time>2022-06-17T18:50:30+02:00</time>
      </trkpt>
      <trkpt lat="49.92725" lon="1.08477">
        <ele>5.8</ele>
        <time>2022-06-17T18:51:19+02:00</time>
      </trkpt>
      <trkpt lat="49.92724" lon="1.08513">
        <time>2022-06-17T18:51:40+02:00</time>
      </trkpt>
      <trkpt lat="49.92725" lon="1.08548">
        <ele>6.1</ele>
        <time>2022-06-17T18:52:01+02:00</time>
      </trkpt>
    </trkseg>
  </trk>
</gpx>